sensor_id;sensor_type;location;lat;lon;timestamp;P1;durP1;ratioP1;P2;durP2;ratioP2
56285;SDS011;42191;47.562;9.686;2022-09-13T00:00:50;32.55;;;30.42;;
56285;SDS011;42191;47.562;9.686;2022-09-13T00:03:18;30.45;;;28.65;;
56285;SDS011;42191;47.562;9.686;2022-09-13T00:05:44;30.88;;;29.08;;
56285;SDS011;42191;47.562;9.686;2022-09-13T00:08:11;31.00;;;29.10;;
56285;SDS011;42191;47.562;9.686;2022-09-13T00:10:38;32.25;;;30.10;;
56285;SDS011;42191;47.562;9.686;2022-09-13T00:13:05;31.33;;;29.42;;
56285;SDS011;42191;47.562;9.686;2022-09-13T00:15:32;29.55;;;27.77;;
56285;SDS011;42191;47.562;9.686;2022-09-13T00:17:59;30.75;;;28.95;;
56285;SDS011;42191;47.562;9.686;2022-09-13T00:20:25;30.60;;;28.80;;
56285;SDS011;42191;47.562;9.686;2022-09-13T00:22:52;30.35;;;28.58;;
56285;SDS011;42191;47.562;9.686;2022-09-13T00:25:18;30.60;;;28.80;;
56285;SDS011;42191;47.562;9.686;2022-09-13T00:27:44;30.40;;;28.60;;
56285;SDS011;42191;47.562;9.686;2022-09-13T00:30:10;31.75;;;29.58;;
56285;SDS011;42191;47.562;9.686;2022-09-13T00:32:37;29.95;;;28.15;;
56285;SDS011;42191;47.562;9.686;2022-09-13T00:35:05;30.73;;;28.83;;
56285;SDS011;42191;47.562;9.686;2022-09-13T00:37:32;31.85;;;29.50;;
56285;SDS011;42191;47.562;9.686;2022-09-13T00:39:58;32.90;;;31.00;;
56285;SDS011;42191;47.562;9.686;2022-09-13T00:42:26;30.25;;;28.45;;
56285;SDS011;42191;47.562;9.686;2022-09-13T00:44:57;31.80;;;29.90;;
56285;SDS011;42191;47.562;9.686;2022-09-13T00:47:35;30.90;;;29.02;;
56285;SDS011;42191;47.562;9.686;2022-09-13T00:52:51;31.52;;;29.73;;
56285;SDS011;42191;47.562;9.686;2022-09-13T00:55:28;31.55;;;29.65;;
56285;SDS011;42191;47.562;9.686;2022-09-13T00:58:04;31.98;;;30.08;;
56285;SDS011;42191;47.562;9.686;2022-09-13T01:00:33;32.10;;;30.13;;
56285;SDS011;42191;47.562;9.686;2022-09-13T01:03:01;30.90;;;28.90;;
56285;SDS011;42191;47.562;9.686;2022-09-13T01:05:32;32.70;;;30.80;;
56285;SDS011;42191;47.562;9.686;2022-09-13T01:08:02;28.98;;;27.27;;
56285;SDS011;42191;47.562;9.686;2022-09-13T01:10:44;29.63;;;27.90;;
56285;SDS011;42191;47.562;9.686;2022-09-13T01:13:12;31.05;;;29.15;;
56285;SDS011;42191;47.562;9.686;2022-09-13T01:15:49;30.98;;;29.17;;
56285;SDS011;42191;47.562;9.686;2022-09-13T01:18:15;30.50;;;28.60;;
56285;SDS011;42191;47.562;9.686;2022-09-13T01:26:32;31.83;;;29.73;;
56285;SDS011;42191;47.562;9.686;2022-09-13T01:29:27;31.63;;;29.73;;
56285;SDS011;42191;47.562;9.686;2022-09-13T01:32:29;30.55;;;28.75;;
56285;SDS011;42191;47.562;9.686;2022-09-13T01:40:04;31.75;;;29.83;;
56285;SDS011;42191;47.562;9.686;2022-09-13T01:43:00;32.15;;;30.25;;
56285;SDS011;42191;47.562;9.686;2022-09-13T01:45:51;30.83;;;29.02;;
56285;SDS011;42191;47.562;9.686;2022-09-13T01:51:20;31.40;;;29.55;;
56285;SDS011;42191;47.562;9.686;2022-09-13T01:59:52;29.80;;;28.08;;
56285;SDS011;42191;47.562;9.686;2022-09-13T02:02:33;29.67;;;27.98;;
56285;SDS011;42191;47.562;9.686;2022-09-13T02:05:18;30.48;;;28.40;;
56285;SDS011;42191;47.562;9.686;2022-09-13T02:08:06;31.90;;;30.00;;
56285;SDS011;42191;47.562;9.686;2022-09-13T02:10:37;30.50;;;28.70;;
56285;SDS011;42191;47.562;9.686;2022-09-13T02:13:12;30.92;;;29.13;;
56285;SDS011;42191;47.562;9.686;2022-09-13T02:15:48;32.00;;;29.80;;
56285;SDS011;42191;47.562;9.686;2022-09-13T02:18:26;30.20;;;28.40;;
56285;SDS011;42191;47.562;9.686;2022-09-13T02:21:07;31.65;;;29.85;;
56285;SDS011;42191;47.562;9.686;2022-09-13T02:23:51;31.50;;;29.63;;
56285;SDS011;42191;47.562;9.686;2022-09-13T02:26:21;31.25;;;29.45;;
56285;SDS011;42191;47.562;9.686;2022-09-13T02:28:53;31.70;;;29.85;;
56285;SDS011;42191;47.562;9.686;2022-09-13T02:31:28;30.38;;;28.45;;
56285;SDS011;42191;47.562;9.686;2022-09-13T02:33:59;31.70;;;29.73;;
56285;SDS011;42191;47.562;9.686;2022-09-13T02:36:33;30.85;;;29.00;;
56285;SDS011;42191;47.562;9.686;2022-09-13T02:39:03;31.85;;;29.95;;
56285;SDS011;42191;47.562;9.686;2022-09-13T02:58:20;30.53;;;28.73;;
56285;SDS011;42191;47.562;9.686;2022-09-13T03:00:59;31.00;;;29.20;;
56285;SDS011;42191;47.562;9.686;2022-09-13T03:03:25;31.23;;;29.33;;
56285;SDS011;42191;47.562;9.686;2022-09-13T03:05:51;31.50;;;29.60;;
56285;SDS011;42191;47.562;9.686;2022-09-13T03:08:17;31.20;;;29.20;;
56285;SDS011;42191;47.562;9.686;2022-09-13T03:16:42;31.55;;;29.65;;
56285;SDS011;42191;47.562;9.686;2022-09-13T03:19:24;32.63;;;30.70;;
56285;SDS011;42191;47.562;9.686;2022-09-13T03:22:24;31.35;;;29.55;;
56285;SDS011;42191;47.562;9.686;2022-09-13T03:25:06;31.50;;;29.60;;
56285;SDS011;42191;47.562;9.686;2022-09-13T03:27:58;30.52;;;28.73;;
56285;SDS011;42191;47.562;9.686;2022-09-13T03:30:34;32.13;;;30.23;;
56285;SDS011;42191;47.562;9.686;2022-09-13T03:35:42;32.13;;;30.15;;
56285;SDS011;42191;47.562;9.686;2022-09-13T03:38:27;31.52;;;29.63;;
56285;SDS011;42191;47.562;9.686;2022-09-13T03:41:10;31.38;;;29.58;;
56285;SDS011;42191;47.562;9.686;2022-09-13T03:43:46;31.13;;;29.33;;
56285;SDS011;42191;47.562;9.686;2022-09-13T03:46:23;32.28;;;30.38;;
56285;SDS011;42191;47.562;9.686;2022-09-13T03:48:54;31.20;;;29.40;;
56285;SDS011;42191;47.562;9.686;2022-09-13T03:51:22;31.15;;;29.35;;
56285;SDS011;42191;47.562;9.686;2022-09-13T03:53:52;30.63;;;28.83;;
56285;SDS011;42191;47.562;9.686;2022-09-13T03:56:21;30.88;;;28.98;;
56285;SDS011;42191;47.562;9.686;2022-09-13T03:58:47;31.73;;;29.63;;
56285;SDS011;42191;47.562;9.686;2022-09-13T04:01:17;32.92;;;30.92;;
56285;SDS011;42191;47.562;9.686;2022-09-13T04:03:45;30.48;;;28.67;;
56285;SDS011;42191;47.562;9.686;2022-09-13T04:06:12;30.52;;;28.73;;
56285;SDS011;42191;47.562;9.686;2022-09-13T04:08:38;29.60;;;27.90;;
56285;SDS011;42191;47.562;9.686;2022-09-13T04:11:04;31.42;;;29.52;;
56285;SDS011;42191;47.562;9.686;2022-09-13T04:13:30;30.63;;;28.83;;
56285;SDS011;42191;47.562;9.686;2022-09-13T04:16:00;30.33;;;28.52;;
56285;SDS011;42191;47.562;9.686;2022-09-13T04:18:27;30.55;;;28.75;;
56285;SDS011;42191;47.562;9.686;2022-09-13T04:20:55;30.67;;;28.83;;
56285;SDS011;42191;47.562;9.686;2022-09-13T04:23:23;30.58;;;28.77;;
56285;SDS011;42191;47.562;9.686;2022-09-13T04:25:51;31.08;;;29.17;;
56285;SDS011;42191;47.562;9.686;2022-09-13T04:28:17;29.40;;;27.60;;
56285;SDS011;42191;47.562;9.686;2022-09-13T04:30:44;31.75;;;29.85;;
56285;SDS011;42191;47.562;9.686;2022-09-13T04:33:11;31.63;;;29.73;;
56285;SDS011;42191;47.562;9.686;2022-09-13T04:35:38;31.33;;;29.38;;
56285;SDS011;42191;47.562;9.686;2022-09-13T04:38:05;29.98;;;28.23;;
56285;SDS011;42191;47.562;9.686;2022-09-13T04:40:31;31.15;;;29.35;;
56285;SDS011;42191;47.562;9.686;2022-09-13T04:42:59;31.48;;;29.63;;
56285;SDS011;42191;47.562;9.686;2022-09-13T04:45:26;30.75;;;28.95;;
56285;SDS011;42191;47.562;9.686;2022-09-13T04:47:53;32.53;;;30.63;;
56285;SDS011;42191;47.562;9.686;2022-09-13T04:50:20;30.65;;;28.85;;
56285;SDS011;42191;47.562;9.686;2022-09-13T04:52:47;31.77;;;29.88;;
56285;SDS011;42191;47.562;9.686;2022-09-13T04:55:14;30.65;;;28.75;;
56285;SDS011;42191;47.562;9.686;2022-09-13T04:57:40;32.83;;;30.85;;
56285;SDS011;42191;47.562;9.686;2022-09-13T05:00:07;29.85;;;27.95;;
56285;SDS011;42191;47.562;9.686;2022-09-13T05:02:34;31.85;;;29.90;;
56285;SDS011;42191;47.562;9.686;2022-09-13T05:05:00;30.88;;;29.00;;
56285;SDS011;42191;47.562;9.686;2022-09-13T05:07:26;33.22;;;31.02;;
56285;SDS011;42191;47.562;9.686;2022-09-13T05:09:52;31.67;;;29.63;;
56285;SDS011;42191;47.562;9.686;2022-09-13T05:12:18;31.27;;;29.48;;
56285;SDS011;42191;47.562;9.686;2022-09-13T05:14:44;32.75;;;30.65;;
56285;SDS011;42191;47.562;9.686;2022-09-13T05:17:10;30.38;;;28.55;;
56285;SDS011;42191;47.562;9.686;2022-09-13T05:19:37;32.10;;;30.20;;
56285;SDS011;42191;47.562;9.686;2022-09-13T05:22:03;30.23;;;28.23;;
56285;SDS011;42191;47.562;9.686;2022-09-13T05:24:29;31.42;;;29.35;;
56285;SDS011;42191;47.562;9.686;2022-09-13T05:26:55;31.85;;;29.85;;
56285;SDS011;42191;47.562;9.686;2022-09-13T05:29:21;32.55;;;30.55;;
56285;SDS011;42191;47.562;9.686;2022-09-13T05:31:47;32.80;;;30.83;;
56285;SDS011;42191;47.562;9.686;2022-09-13T05:34:14;32.88;;;30.77;;
56285;SDS011;42191;47.562;9.686;2022-09-13T05:36:43;32.55;;;30.65;;
56285;SDS011;42191;47.562;9.686;2022-09-13T05:39:11;31.05;;;29.15;;
56285;SDS011;42191;47.562;9.686;2022-09-13T05:41:39;31.20;;;29.40;;
56285;SDS011;42191;47.562;9.686;2022-09-13T05:44:05;31.00;;;29.10;;
56285;SDS011;42191;47.562;9.686;2022-09-13T05:46:32;32.60;;;30.70;;
56285;SDS011;42191;47.562;9.686;2022-09-13T05:48:58;31.45;;;29.55;;
56285;SDS011;42191;47.562;9.686;2022-09-13T05:51:24;30.17;;;28.35;;
56285;SDS011;42191;47.562;9.686;2022-09-13T05:53:52;32.03;;;30.10;;
56285;SDS011;42191;47.562;9.686;2022-09-13T05:56:25;31.35;;;29.42;;
56285;SDS011;42191;47.562;9.686;2022-09-13T05:58:52;30.10;;;28.33;;
56285;SDS011;42191;47.562;9.686;2022-09-13T06:01:20;30.65;;;28.85;;
56285;SDS011;42191;47.562;9.686;2022-09-13T06:03:49;31.92;;;30.02;;
56285;SDS011;42191;47.562;9.686;2022-09-13T06:06:16;29.42;;;27.63;;
56285;SDS011;42191;47.562;9.686;2022-09-13T06:08:42;32.00;;;30.00;;
56285;SDS011;42191;47.562;9.686;2022-09-13T06:11:10;30.38;;;28.58;;
56285;SDS011;42191;47.562;9.686;2022-09-13T06:13:37;30.67;;;28.80;;
56285;SDS011;42191;47.562;9.686;2022-09-13T06:16:07;30.80;;;28.95;;
56285;SDS011;42191;47.562;9.686;2022-09-13T06:18:35;31.48;;;29.65;;
56285;SDS011;42191;47.562;9.686;2022-09-13T06:21:03;31.02;;;29.23;;
56285;SDS011;42191;47.562;9.686;2022-09-13T06:23:34;30.75;;;28.95;;
56285;SDS011;42191;47.562;9.686;2022-09-13T06:26:05;32.63;;;30.58;;
56285;SDS011;42191;47.562;9.686;2022-09-13T06:28:33;32.05;;;30.15;;
56285;SDS011;42191;47.562;9.686;2022-09-13T06:31:07;30.15;;;28.35;;
56285;SDS011;42191;47.562;9.686;2022-09-13T06:33:38;31.27;;;29.38;;
56285;SDS011;42191;47.562;9.686;2022-09-13T06:36:06;31.67;;;29.77;;
56285;SDS011;42191;47.562;9.686;2022-09-13T06:38:43;32.72;;;30.73;;
56285;SDS011;42191;47.562;9.686;2022-09-13T06:41:11;31.42;;;29.63;;
56285;SDS011;42191;47.562;9.686;2022-09-13T06:43:39;31.17;;;29.27;;
56285;SDS011;42191;47.562;9.686;2022-09-13T06:46:10;32.30;;;30.13;;
56285;SDS011;42191;47.562;9.686;2022-09-13T06:48:38;32.22;;;30.17;;
56285;SDS011;42191;47.562;9.686;2022-09-13T06:51:06;31.30;;;29.35;;
56285;SDS011;42191;47.562;9.686;2022-09-13T06:53:34;30.52;;;28.70;;
56285;SDS011;42191;47.562;9.686;2022-09-13T06:56:03;29.95;;;28.10;;
56285;SDS011;42191;47.562;9.686;2022-09-13T06:58:35;31.08;;;29.17;;
56285;SDS011;42191;47.562;9.686;2022-09-13T07:01:12;30.58;;;28.77;;
56285;SDS011;42191;47.562;9.686;2022-09-13T07:03:46;31.35;;;29.48;;
56285;SDS011;42191;47.562;9.686;2022-09-13T07:06:19;31.05;;;29.15;;
56285;SDS011;42191;47.562;9.686;2022-09-13T07:08:47;29.63;;;27.83;;
56285;SDS011;42191;47.562;9.686;2022-09-13T07:11:15;30.95;;;29.15;;
56285;SDS011;42191;47.562;9.686;2022-09-13T07:13:47;30.17;;;28.15;;
56285;SDS011;42191;47.562;9.686;2022-09-13T07:16:14;29.05;;;27.08;;
56285;SDS011;42191;47.562;9.686;2022-09-13T07:18:40;29.25;;;27.45;;
56285;SDS011;42191;47.562;9.686;2022-09-13T07:21:07;30.70;;;28.85;;
56285;SDS011;42191;47.562;9.686;2022-09-13T07:23:35;30.75;;;28.85;;
56285;SDS011;42191;47.562;9.686;2022-09-13T07:26:02;29.92;;;28.02;;
56285;SDS011;42191;47.562;9.686;2022-09-13T07:28:40;29.52;;;27.50;;
56285;SDS011;42191;47.562;9.686;2022-09-13T07:31:12;28.85;;;26.95;;
56285;SDS011;42191;47.562;9.686;2022-09-13T07:33:40;30.15;;;28.35;;
56285;SDS011;42191;47.562;9.686;2022-09-13T07:36:08;28.65;;;26.95;;
56285;SDS011;42191;47.562;9.686;2022-09-13T07:38:36;28.92;;;27.23;;
56285;SDS011;42191;47.562;9.686;2022-09-13T07:41:04;28.73;;;27.02;;
56285;SDS011;42191;47.562;9.686;2022-09-13T07:43:33;30.92;;;28.98;;
56285;SDS011;42191;47.562;9.686;2022-09-13T07:46:04;29.98;;;28.15;;
56285;SDS011;42191;47.562;9.686;2022-09-13T07:48:32;29.85;;;28.08;;
56285;SDS011;42191;47.562;9.686;2022-09-13T07:51:07;28.65;;;26.95;;
56285;SDS011;42191;47.562;9.686;2022-09-13T07:53:38;29.00;;;27.20;;
56285;SDS011;42191;47.562;9.686;2022-09-13T07:56:09;28.35;;;26.45;;
56285;SDS011;42191;47.562;9.686;2022-09-13T07:58:37;29.10;;;27.30;;
56285;SDS011;42191;47.562;9.686;2022-09-13T08:03:40;29.55;;;27.85;;
56285;SDS011;42191;47.562;9.686;2022-09-13T08:06:07;28.63;;;26.92;;
56285;SDS011;42191;47.562;9.686;2022-09-13T08:08:34;27.05;;;25.20;;
56285;SDS011;42191;47.562;9.686;2022-09-13T08:11:02;29.63;;;27.52;;
56285;SDS011;42191;47.562;9.686;2022-09-13T08:13:30;27.77;;;25.90;;
56285;SDS011;42191;47.562;9.686;2022-09-13T08:16:00;30.90;;;29.10;;
56285;SDS011;42191;47.562;9.686;2022-09-13T08:18:30;30.35;;;28.38;;
56285;SDS011;42191;47.562;9.686;2022-09-13T08:20:57;30.45;;;28.40;;
56285;SDS011;42191;47.562;9.686;2022-09-13T08:23:24;29.52;;;27.67;;
56285;SDS011;42191;47.562;9.686;2022-09-13T08:25:51;28.20;;;26.50;;
56285;SDS011;42191;47.562;9.686;2022-09-13T08:28:18;28.63;;;26.38;;
56285;SDS011;42191;47.562;9.686;2022-09-13T08:30:46;28.25;;;26.45;;
56285;SDS011;42191;47.562;9.686;2022-09-13T08:33:12;28.55;;;26.33;;
56285;SDS011;42191;47.562;9.686;2022-09-13T08:35:39;27.33;;;25.65;;
56285;SDS011;42191;47.562;9.686;2022-09-13T08:38:06;28.40;;;26.60;;
56285;SDS011;42191;47.562;9.686;2022-09-13T08:40:43;28.42;;;26.58;;
56285;SDS011;42191;47.562;9.686;2022-09-13T08:43:21;28.42;;;26.63;;
56285;SDS011;42191;47.562;9.686;2022-09-13T08:48:52;28.77;;;27.05;;
56285;SDS011;42191;47.562;9.686;2022-09-13T08:51:27;29.05;;;27.17;;
56285;SDS011;42191;47.562;9.686;2022-09-13T08:54:04;28.35;;;26.65;;
56285;SDS011;42191;47.562;9.686;2022-09-13T08:56:41;28.38;;;26.58;;
56285;SDS011;42191;47.562;9.686;2022-09-13T09:02:27;28.65;;;26.85;;
56285;SDS011;42191;47.562;9.686;2022-09-13T09:05:15;28.27;;;26.42;;
56285;SDS011;42191;47.562;9.686;2022-09-13T09:10:22;29.38;;;27.60;;
56285;SDS011;42191;47.562;9.686;2022-09-13T09:12:56;27.48;;;25.77;;
56285;SDS011;42191;47.562;9.686;2022-09-13T09:15:24;28.65;;;26.80;;
56285;SDS011;42191;47.562;9.686;2022-09-13T09:18:03;29.67;;;27.77;;
56285;SDS011;42191;47.562;9.686;2022-09-13T09:20:46;27.95;;;26.25;;
56285;SDS011;42191;47.562;9.686;2022-09-13T09:23:28;28.63;;;26.63;;
56285;SDS011;42191;47.562;9.686;2022-09-13T09:28:35;28.88;;;26.83;;
56285;SDS011;42191;47.562;9.686;2022-09-13T09:31:09;27.02;;;25.40;;
56285;SDS011;42191;47.562;9.686;2022-09-13T09:39:09;26.10;;;24.52;;
56285;SDS011;42191;47.562;9.686;2022-09-13T09:41:37;29.77;;;27.77;;
56285;SDS011;42191;47.562;9.686;2022-09-13T09:46:45;27.75;;;26.00;;
56285;SDS011;42191;47.562;9.686;2022-09-13T09:52:18;26.40;;;24.55;;
56285;SDS011;42191;47.562;9.686;2022-09-13T09:54:52;28.17;;;26.38;;
56285;SDS011;42191;47.562;9.686;2022-09-13T09:57:21;28.58;;;26.77;;
56285;SDS011;42191;47.562;9.686;2022-09-13T10:00:25;28.58;;;26.85;;
56285;SDS011;42191;47.562;9.686;2022-09-13T10:02:55;29.02;;;27.23;;
56285;SDS011;42191;47.562;9.686;2022-09-13T10:05:23;26.83;;;24.88;;
56285;SDS011;42191;47.562;9.686;2022-09-13T10:08:01;27.35;;;25.65;;
56285;SDS011;42191;47.562;9.686;2022-09-13T10:13:00;27.45;;;25.60;;
56285;SDS011;42191;47.562;9.686;2022-09-13T10:15:29;28.55;;;26.40;;
56285;SDS011;42191;47.562;9.686;2022-09-13T10:18:00;26.65;;;25.05;;
56285;SDS011;42191;47.562;9.686;2022-09-13T10:20:38;27.75;;;26.05;;
56285;SDS011;42191;47.562;9.686;2022-09-13T10:25:39;29.00;;;27.10;;
56285;SDS011;42191;47.562;9.686;2022-09-13T10:28:14;28.67;;;26.85;;
56285;SDS011;42191;47.562;9.686;2022-09-13T10:33:21;28.00;;;26.20;;
56285;SDS011;42191;47.562;9.686;2022-09-13T10:36:02;28.75;;;26.70;;
56285;SDS011;42191;47.562;9.686;2022-09-13T10:38:33;29.52;;;27.45;;
56285;SDS011;42191;47.562;9.686;2022-09-13T10:41:04;30.05;;;28.13;;
56285;SDS011;42191;47.562;9.686;2022-09-13T10:43:35;28.60;;;26.17;;
56285;SDS011;42191;47.562;9.686;2022-09-13T10:46:03;28.27;;;26.42;;
56285;SDS011;42191;47.562;9.686;2022-09-13T10:48:45;29.00;;;27.10;;
56285;SDS011;42191;47.562;9.686;2022-09-13T10:51:27;27.88;;;26.08;;
56285;SDS011;42191;47.562;9.686;2022-09-13T10:54:08;28.67;;;26.88;;
56285;SDS011;42191;47.562;9.686;2022-09-13T10:56:48;28.23;;;26.42;;
56285;SDS011;42191;47.562;9.686;2022-09-13T10:59:24;28.30;;;26.40;;
56285;SDS011;42191;47.562;9.686;2022-09-13T11:13:25;26.92;;;25.23;;
56285;SDS011;42191;47.562;9.686;2022-09-13T11:24:36;28.75;;;26.95;;
56285;SDS011;42191;47.562;9.686;2022-09-13T11:38:30;27.75;;;26.05;;
56285;SDS011;42191;47.562;9.686;2022-09-13T11:55:13;28.40;;;26.40;;
56285;SDS011;42191;47.562;9.686;2022-09-13T11:57:52;27.40;;;25.73;;
56285;SDS011;42191;47.562;9.686;2022-09-13T12:00:22;27.83;;;26.15;;
56285;SDS011;42191;47.562;9.686;2022-09-13T12:05:51;27.92;;;26.02;;
56285;SDS011;42191;47.562;9.686;2022-09-13T12:08:25;26.35;;;24.65;;
56285;SDS011;42191;47.562;9.686;2022-09-13T12:10:57;27.02;;;25.33;;
56285;SDS011;42191;47.562;9.686;2022-09-13T12:13:51;27.05;;;25.30;;
56285;SDS011;42191;47.562;9.686;2022-09-13T12:16:21;27.73;;;25.83;;
56285;SDS011;42191;47.562;9.686;2022-09-13T12:18:56;27.08;;;25.13;;
56285;SDS011;42191;47.562;9.686;2022-09-13T12:21:37;26.55;;;24.95;;
56285;SDS011;42191;47.562;9.686;2022-09-13T12:26:42;25.67;;;24.15;;
56285;SDS011;42191;47.562;9.686;2022-09-13T12:29:33;26.20;;;24.33;;
56285;SDS011;42191;47.562;9.686;2022-09-13T12:32:05;26.15;;;24.48;;
56285;SDS011;42191;47.562;9.686;2022-09-13T12:42:37;26.85;;;24.73;;
56285;SDS011;42191;47.562;9.686;2022-09-13T12:45:15;42.50;;;28.02;;
56285;SDS011;42191;47.562;9.686;2022-09-13T12:48:00;47.70;;;29.90;;
56285;SDS011;42191;47.562;9.686;2022-09-13T13:01:51;26.27;;;24.35;;
56285;SDS011;42191;47.562;9.686;2022-09-13T13:04:22;27.48;;;25.17;;
56285;SDS011;42191;47.562;9.686;2022-09-13T13:07:04;24.02;;;22.33;;
56285;SDS011;42191;47.562;9.686;2022-09-13T13:09:49;24.85;;;23.25;;
56285;SDS011;42191;47.562;9.686;2022-09-13T13:14:59;24.45;;;22.92;;
56285;SDS011;42191;47.562;9.686;2022-09-13T13:17:52;25.42;;;23.73;;
56285;SDS011;42191;47.562;9.686;2022-09-13T13:23:16;25.52;;;23.80;;
56285;SDS011;42191;47.562;9.686;2022-09-13T13:25:59;24.98;;;23.17;;
56285;SDS011;42191;47.562;9.686;2022-09-13T13:31:10;25.70;;;23.90;;
56285;SDS011;42191;47.562;9.686;2022-09-13T13:34:03;25.50;;;23.80;;
56285;SDS011;42191;47.562;9.686;2022-09-13T13:36:48;25.88;;;24.27;;
56285;SDS011;42191;47.562;9.686;2022-09-13T13:41:55;25.38;;;23.88;;
56285;SDS011;42191;47.562;9.686;2022-09-13T13:46:49;26.38;;;24.58;;
56285;SDS011;42191;47.562;9.686;2022-09-13T13:58:01;25.42;;;23.67;;
56285;SDS011;42191;47.562;9.686;2022-09-13T14:00:34;24.20;;;22.70;;
56285;SDS011;42191;47.562;9.686;2022-09-13T14:20:23;24.50;;;23.00;;
56285;SDS011;42191;47.562;9.686;2022-09-13T14:22:50;22.88;;;21.35;;
56285;SDS011;42191;47.562;9.686;2022-09-13T14:25:34;25.88;;;24.08;;
56285;SDS011;42191;47.562;9.686;2022-09-13T14:28:00;27.42;;;25.25;;
56285;SDS011;42191;47.562;9.686;2022-09-13T14:30:31;24.38;;;22.77;;
56285;SDS011;42191;47.562;9.686;2022-09-13T14:33:00;24.27;;;22.77;;
56285;SDS011;42191;47.562;9.686;2022-09-13T14:37:55;27.25;;;24.98;;
56285;SDS011;42191;47.562;9.686;2022-09-13T14:40:45;23.90;;;22.30;;
56285;SDS011;42191;47.562;9.686;2022-09-13T14:43:13;23.33;;;21.75;;
56285;SDS011;42191;47.562;9.686;2022-09-13T14:45:40;22.98;;;21.58;;
56285;SDS011;42191;47.562;9.686;2022-09-13T14:48:31;21.70;;;20.30;;
56285;SDS011;42191;47.562;9.686;2022-09-13T14:51:10;22.98;;;21.23;;
56285;SDS011;42191;47.562;9.686;2022-09-13T14:53:45;22.05;;;20.55;;
56285;SDS011;42191;47.562;9.686;2022-09-13T14:58:43;22.38;;;20.75;;
56285;SDS011;42191;47.562;9.686;2022-09-13T15:01:19;21.92;;;20.52;;
56285;SDS011;42191;47.562;9.686;2022-09-13T15:03:52;21.92;;;20.63;;
56285;SDS011;42191;47.562;9.686;2022-09-13T15:06:23;22.90;;;21.50;;
56285;SDS011;42191;47.562;9.686;2022-09-13T15:11:37;22.52;;;20.50;;
56285;SDS011;42191;47.562;9.686;2022-09-13T15:14:23;22.70;;;21.27;;
56285;SDS011;42191;47.562;9.686;2022-09-13T15:17:11;22.08;;;20.38;;
56285;SDS011;42191;47.562;9.686;2022-09-13T15:22:20;24.08;;;22.13;;
56285;SDS011;42191;47.562;9.686;2022-09-13T15:24:56;23.67;;;22.13;;
56285;SDS011;42191;47.562;9.686;2022-09-13T15:27:24;23.70;;;22.23;;
56285;SDS011;42191;47.562;9.686;2022-09-13T15:32:34;24.33;;;22.65;;
56285;SDS011;42191;47.562;9.686;2022-09-13T15:35:40;25.27;;;23.67;;
56285;SDS011;42191;47.562;9.686;2022-09-13T15:38:01;23.67;;;22.08;;
56285;SDS011;42191;47.562;9.686;2022-09-13T15:40:51;24.60;;;23.10;;
56285;SDS011;42191;47.562;9.686;2022-09-13T15:43:24;24.63;;;23.02;;
56285;SDS011;42191;47.562;9.686;2022-09-13T15:45:50;24.75;;;22.95;;
56285;SDS011;42191;47.562;9.686;2022-09-13T15:48:27;23.92;;;22.30;;
56285;SDS011;42191;47.562;9.686;2022-09-13T15:51:16;23.60;;;22.05;;
56285;SDS011;42191;47.562;9.686;2022-09-13T15:53:43;23.67;;;22.08;;
56285;SDS011;42191;47.562;9.686;2022-09-13T15:56:18;24.48;;;22.80;;
56285;SDS011;42191;47.562;9.686;2022-09-13T15:58:45;23.27;;;21.88;;
56285;SDS011;42191;47.562;9.686;2022-09-13T16:01:12;23.85;;;22.25;;
56285;SDS011;42191;47.562;9.686;2022-09-13T16:03:40;23.85;;;22.15;;
56285;SDS011;42191;47.562;9.686;2022-09-13T16:06:06;24.30;;;22.52;;
56285;SDS011;42191;47.562;9.686;2022-09-13T16:08:36;22.65;;;21.15;;
56285;SDS011;42191;47.562;9.686;2022-09-13T16:11:03;24.55;;;22.85;;
56285;SDS011;42191;47.562;9.686;2022-09-13T16:13:29;23.92;;;22.35;;
56285;SDS011;42191;47.562;9.686;2022-09-13T16:15:56;24.98;;;23.27;;
56285;SDS011;42191;47.562;9.686;2022-09-13T16:18:22;23.63;;;22.02;;
56285;SDS011;42191;47.562;9.686;2022-09-13T16:20:48;24.55;;;22.90;;
56285;SDS011;42191;47.562;9.686;2022-09-13T16:23:15;25.63;;;23.70;;
56285;SDS011;42191;47.562;9.686;2022-09-13T16:25:42;24.45;;;22.92;;
56285;SDS011;42191;47.562;9.686;2022-09-13T16:28:11;25.70;;;24.02;;
56285;SDS011;42191;47.562;9.686;2022-09-13T16:30:41;23.52;;;21.75;;
56285;SDS011;42191;47.562;9.686;2022-09-13T16:33:08;23.88;;;22.20;;
56285;SDS011;42191;47.562;9.686;2022-09-13T16:35:34;25.23;;;23.40;;
56285;SDS011;42191;47.562;9.686;2022-09-13T16:38:00;24.00;;;22.40;;
56285;SDS011;42191;47.562;9.686;2022-09-13T16:40:26;26.80;;;24.05;;
56285;SDS011;42191;47.562;9.686;2022-09-13T16:42:52;26.20;;;24.00;;
56285;SDS011;42191;47.562;9.686;2022-09-13T16:45:19;26.88;;;24.88;;
56285;SDS011;42191;47.562;9.686;2022-09-13T16:47:45;25.70;;;23.85;;
56285;SDS011;42191;47.562;9.686;2022-09-13T16:50:12;25.33;;;23.83;;
56285;SDS011;42191;47.562;9.686;2022-09-13T16:52:38;26.90;;;24.77;;
56285;SDS011;42191;47.562;9.686;2022-09-13T16:55:05;26.70;;;24.60;;
56285;SDS011;42191;47.562;9.686;2022-09-13T16:57:32;26.23;;;24.42;;
56285;SDS011;42191;47.562;9.686;2022-09-13T16:59:58;24.88;;;23.27;;
56285;SDS011;42191;47.562;9.686;2022-09-13T17:02:25;26.17;;;24.30;;
56285;SDS011;42191;47.562;9.686;2022-09-13T17:04:53;25.75;;;24.05;;
56285;SDS011;42191;47.562;9.686;2022-09-13T17:07:19;26.13;;;24.25;;
56285;SDS011;42191;47.562;9.686;2022-09-13T17:09:45;25.73;;;24.13;;
56285;SDS011;42191;47.562;9.686;2022-09-13T17:12:12;26.00;;;24.30;;
56285;SDS011;42191;47.562;9.686;2022-09-13T17:14:39;27.20;;;25.30;;
56285;SDS011;42191;47.562;9.686;2022-09-13T17:19:38;27.73;;;25.98;;
56285;SDS011;42191;47.562;9.686;2022-09-13T17:22:05;27.08;;;25.17;;
56285;SDS011;42191;47.562;9.686;2022-09-13T17:24:33;25.48;;;23.88;;
56285;SDS011;42191;47.562;9.686;2022-09-13T17:27:01;25.92;;;24.23;;
56285;SDS011;42191;47.562;9.686;2022-09-13T17:29:30;25.77;;;24.17;;
56285;SDS011;42191;47.562;9.686;2022-09-13T17:31:57;27.75;;;25.95;;
56285;SDS011;42191;47.562;9.686;2022-09-13T17:34:25;26.40;;;24.70;;
56285;SDS011;42191;47.562;9.686;2022-09-13T17:36:52;29.40;;;27.30;;
56285;SDS011;42191;47.562;9.686;2022-09-13T17:39:18;28.20;;;26.10;;
56285;SDS011;42191;47.562;9.686;2022-09-13T17:41:45;26.42;;;24.63;;
56285;SDS011;42191;47.562;9.686;2022-09-13T17:44:12;27.85;;;26.05;;
56285;SDS011;42191;47.562;9.686;2022-09-13T17:46:40;27.17;;;25.35;;
56285;SDS011;42191;47.562;9.686;2022-09-13T17:49:06;27.70;;;26.00;;
56285;SDS011;42191;47.562;9.686;2022-09-13T17:51:33;27.88;;;25.98;;
56285;SDS011;42191;47.562;9.686;2022-09-13T17:54:05;27.17;;;25.48;;
56285;SDS011;42191;47.562;9.686;2022-09-13T17:56:34;27.27;;;25.48;;
56285;SDS011;42191;47.562;9.686;2022-09-13T17:59:23;27.80;;;25.90;;
56285;SDS011;42191;47.562;9.686;2022-09-13T18:01:50;28.13;;;26.20;;
56285;SDS011;42191;47.562;9.686;2022-09-13T18:04:18;27.20;;;25.30;;
56285;SDS011;42191;47.562;9.686;2022-09-13T18:06:46;28.42;;;26.52;;
56285;SDS011;42191;47.562;9.686;2022-09-13T18:09:14;28.13;;;26.27;;
56285;SDS011;42191;47.562;9.686;2022-09-13T18:11:40;27.95;;;25.83;;